Time;durP1;ratioP1;P1;durP2;ratioP2;P2;SDS_P1;SDS_P2;PMS_P1;PMS_P2;Temp;Humidity;BMP_temperature;BMP_pressure;BME280_temperature;BME280_humidity;BME280_pressure;Samples;Min_cycle;Max_cycle;Signal;HPM_P1;HPM_P2
2023/06/02 00:01:32;;;;;;;8.13;5.27;;;;;;;15.77;89.66;94525.06;5068668;28;20195;-45
2023/06/02 00:04:01;;;;;;;6.90;5.13;;;;;;;15.88;89.70;94541.88;5050980;28;20700;-46
2023/06/02 00:06:30;;;;;;;7.03;4.90;;;;;;;15.86;90.08;94532.72;5050676;28;20650;-45
2023/06/02 00:08:59;;;;;;;6.73;5.20;;;;;;;15.89;89.61;94540.94;5066923;28;20198;-45
2023/06/02 00:11:27;;;;;;;6.70;5.03;;;;;;;15.87;89.44;94536.91;5069966;28;20596;-45
2023/06/02 00:13:54;;;;;;;6.13;5.40;;;;;;;15.90;89.79;94539.94;5070870;28;20563;-43
2023/06/02 00:16:21;;;;;;;7.70;5.10;;;;;;;15.91;89.86;94535.59;5070724;28;20569;-45
2023/06/02 00:18:48;;;;;;;11.13;5.67;;;;;;;15.91;89.53;94536.38;5071078;28;20186;-44
2023/06/02 00:21:18;;;;;;;7.33;5.00;;;;;;;15.93;89.65;94537.03;5070354;28;20189;-45
2023/06/02 00:23:45;;;;;;;5.53;4.90;;;;;;;15.94;89.84;94530.09;5070782;28;20186;-45
2023/06/02 00:26:12;;;;;;;5.60;5.10;;;;;;;15.92;89.75;94527.66;5070195;28;20178;-43
2023/06/02 00:28:40;;;;;;;7.37;5.60;;;;;;;15.94;90.05;94538.63;5070029;28;20222;-44
2023/06/02 00:31:07;;;;;;;10.60;6.00;;;;;;;15.90;89.85;94523.69;5071093;28;20234;-44
2023/06/02 00:33:34;;;;;;;10.07;5.40;;;;;;;15.96;90.42;94535.84;5071044;28;20186;-47
2023/06/02 00:36:01;;;;;;;8.40;5.03;;;;;;;15.97;90.46;94534.88;5071345;28;20186;-44
2023/06/02 00:38:28;;;;;;;10.43;5.60;;;;;;;15.96;90.46;94531.50;5070010;28;20195;-45
2023/06/02 00:40:54;;;;;;;7.43;5.13;;;;;;;15.96;90.88;94538.44;5070195;28;20194;-45
2023/06/02 00:43:21;;;;;;;9.57;5.67;;;;;;;15.96;91.61;94523.75;5069281;28;20190;-44
2023/06/02 00:45:49;;;;;;;8.47;5.60;;;;;;;15.96;91.85;94528.91;5070291;28;20178;-46
2023/06/02 00:48:16;;;;;;;5.40;4.90;;;;;;;15.95;91.96;94535.06;5069722;28;20247;-45
2023/06/02 00:50:43;;;;;;;10.33;5.83;;;;;;;15.94;92.20;94519.78;5069972;28;20217;-45
2023/06/02 00:53:11;;;;;;;7.43;5.87;;;;;;;15.91;92.35;94523.50;5069774;28;20292;-44
2023/06/02 00:55:38;;;;;;;8.17;5.30;;;;;;;15.96;92.25;94525.53;5069607;28;20201;-44
2023/06/02 00:58:07;;;;;;;7.47;5.63;;;;;;;15.94;92.02;94523.16;5069903;28;20198;-44
2023/06/02 01:00:38;;;;;;;7.37;5.47;;;;;;;15.93;91.34;94524.13;5070022;28;20221;-45
2023/06/02 01:03:07;;;;;;;9.10;5.10;;;;;;;15.98;91.67;94521.03;5069587;28;20189;-46
2023/06/02 01:05:35;;;;;;;6.30;5.47;;;;;;;15.93;92.15;94505.25;5070071;28;20179;-46
2023/06/02 01:08:03;;;;;;;6.93;5.30;;;;;;;15.93;92.72;94516.41;5070513;28;20198;-43
2023/06/02 01:10:31;;;;;;;6.00;5.40;;;;;;;15.95;93.11;94511.06;5070608;28;20248;-45
2023/06/02 01:12:58;;;;;;;7.97;5.73;;;;;;;15.94;93.31;94506.88;5070778;28;20182;-44
2023/06/02 01:15:25;;;;;;;8.13;5.47;;;;;;;15.95;93.54;94513.63;5069065;28;20190;-46
2023/06/02 01:17:53;;;;;;;6.50;5.53;;;;;;;15.93;93.93;94511.25;5069595;28;20656;-44
2023/06/02 01:20:22;;;;;;;8.67;5.77;;;;;;;15.92;94.16;94509.59;5069444;28;20285;-43
2023/06/02 01:23:01;;;;;;;6.07;5.43;;;;;;;15.94;94.32;94509.47;5069553;28;20655;-43
2023/06/02 01:25:29;;;;;;;8.30;5.87;;;;;;;15.92;94.38;94506.22;5068833;28;20183;-45
2023/06/02 01:27:59;;;;;;;8.73;5.57;;;;;;;15.91;94.58;94505.44;5069921;28;20275;-44
2023/06/02 01:30:27;;;;;;;9.57;6.27;;;;;;;15.91;94.41;94502.84;5069169;28;20287;-45
2023/06/02 01:33:07;;;;;;;6.17;5.57;;;;;;;15.86;95.17;94494.06;5068947;28;20688;-45
2023/06/02 01:35:42;;;;;;;7.27;5.90;;;;;;;15.90;95.55;94505.63;5069240;28;20681;-44
2023/06/02 01:38:10;;;;;;;13.10;6.17;;;;;;;15.88;95.67;94504.97;5069237;28;20247;-44
2023/06/02 01:40:39;;;;;;;8.00;6.20;;;;;;;15.86;96.00;94497.44;5069276;28;20190;-44
2023/06/02 01:43:07;;;;;;;11.87;6.40;;;;;;;15.90;95.86;94500.47;5068932;28;20669;-45
2023/06/02 01:45:34;;;;;;;7.70;5.80;;;;;;;15.91;96.08;94500.28;5068996;28;20186;-44
2023/06/02 01:48:03;;;;;;;7.60;5.80;;;;;;;15.93;96.07;94500.91;5069133;28;20657;-44
2023/06/02 01:50:31;;;;;;;8.60;6.33;;;;;;;15.96;96.38;94499.75;5069106;28;20384;-44
2023/06/02 01:52:58;;;;;;;9.83;5.80;;;;;;;15.98;96.28;94498.59;5068956;28;20194;-43
2023/06/02 01:55:24;;;;;;;12.10;6.53;;;;;;;15.97;96.61;94502.16;5060124;28;20205;-43
2023/06/02 01:57:53;;;;;;;8.50;5.97;;;;;;;15.97;96.79;94502.16;5069263;28;20649;-45
2023/06/02 02:00:20;;;;;;;7.13;6.00;;;;;;;15.95;97.00;94488.63;5068651;28;20202;-48
2023/06/02 02:02:48;;;;;;;7.47;6.40;;;;;;;15.86;97.28;94471.63;5068625;28;20285;-42
2023/06/02 02:05:15;;;;;;;13.17;6.07;;;;;;;15.97;97.32;94491.81;5068550;28;20251;-44
2023/06/02 02:07:42;;;;;;;10.83;6.27;;;;;;;15.97;97.55;94493.63;5068966;28;20226;-44
2023/06/02 02:10:11;;;;;;;9.17;6.57;;;;;;;15.86;97.69;94484.53;5068707;28;20717;-45
2023/06/02 02:12:38;;;;;;;13.87;5.83;;;;;;;15.93;97.88;94493.19;5069128;28;20281;-46
2023/06/02 02:15:09;;;;;;;10.63;6.27;;;;;;;15.86;97.89;94486.31;5072168;28;20194;-45
2023/06/02 02:17:36;;;;;;;8.17;6.43;;;;;;;15.92;97.56;94499.28;5072669;28;20197;-43
2023/06/02 02:20:05;;;;;;;12.23;6.60;;;;;;;15.88;97.52;94492.88;5072897;28;20198;-43
2023/06/02 02:22:32;;;;;;;9.50;6.30;;;;;;;15.89;97.76;94489.34;5073083;28;20677;-43
2023/06/02 02:24:58;;;;;;;9.07;5.70;;;;;;;15.89;97.93;94496.25;5073325;28;20182;-44
2023/06/02 02:27:25;;;;;;;7.53;6.37;;;;;;;15.86;98.14;94489.69;5072773;28;20248;-44
2023/06/02 02:29:52;;;;;;;7.77;5.67;;;;;;;15.87;98.27;94498.22;5072598;28;20195;-45
2023/06/02 02:32:20;;;;;;;9.10;6.37;;;;;;;15.86;98.49;94491.47;5072770;28;20701;-45
2023/06/02 02:34:48;;;;;;;8.67;5.87;;;;;;;15.88;98.35;94492.88;5073537;28;20189;-44
2023/06/02 02:37:16;;;;;;;8.50;5.93;;;;;;;15.88;98.59;94487.72;5073315;28;20725;-45
2023/06/02 02:39:43;;;;;;;9.60;6.23;;;;;;;15.89;98.70;94491.94;5072632;28;20255;-43
2023/06/02 02:42:10;;;;;;;8.93;6.43;;;;;;;15.89;98.66;94485.94;5072700;28;20607;-47
2023/06/02 02:44:36;;;;;;;8.57;6.57;;;;;;;15.91;98.78;94495.13;5072108;28;20522;-46
2023/06/02 02:47:03;;;;;;;8.93;6.13;;;;;;;15.91;98.77;94484.81;5072259;28;20654;-43
2023/06/02 02:49:31;;;;;;;9.07;6.03;;;;;;;15.92;98.76;94486.41;5072086;28;20194;-49
2023/06/02 02:51:58;;;;;;;7.03;5.70;;;;;;;15.88;98.62;94479.19;5072397;28;20230;-44
2023/06/02 02:54:25;;;;;;;8.63;6.90;;;;;;;15.98;98.29;94488.28;5072263;28;20198;-42
2023/06/02 02:56:52;;;;;;;7.93;6.43;;;;;;;15.98;98.44;94485.72;5071940;28;20186;-44
2023/06/02 02:59:20;;;;;;;6.50;5.90;;;;;;;15.96;98.50;94486.84;5071861;28;20643;-44
2023/06/02 03:01:47;;;;;;;9.03;6.07;;;;;;;15.96;98.76;94490.22;5072017;28;20201;-46
2023/06/02 03:04:21;;;;;;;9.17;6.67;;;;;;;15.97;98.63;94483.28;5072429;28;20267;-46
2023/06/02 03:06:52;;;;;;;10.03;6.90;;;;;;;15.81;98.65;94466.22;5072570;28;20251;-44
2023/06/02 03:09:19;;;;;;;12.00;6.17;;;;;;;15.94;98.52;94492.19;5072356;28;20195;-46
2023/06/02 03:11:46;;;;;;;7.73;6.30;;;;;;;15.85;97.88;94469.25;5072631;28;20283;-44
2023/06/02 03:14:14;;;;;;;8.70;5.87;;;;;;;15.97;98.01;94489.25;5072122;28;20187;-47
2023/06/02 03:16:42;;;;;;;11.03;6.20;;;;;;;15.99;97.76;94496.84;5072133;28;20198;-43
2023/06/02 03:19:09;;;;;;;13.10;6.33;;;;;;;16.01;97.86;94492.28;5071591;28;20186;-44
2023/06/02 03:21:41;;;;;;;8.97;5.97;;;;;;;16.03;97.72;94490.34;5072080;28;20186;-44
2023/06/02 03:24:14;;;;;;;11.97;5.67;;;;;;;16.05;97.59;94488.38;5072215;28;20269;-48
2023/06/02 03:26:45;;;;;;;11.20;6.37;;;;;;;16.09;97.28;94489.63;5070690;28;20190;-45
2023/06/02 03:29:13;;;;;;;6.43;5.77;;;;;;;16.12;97.30;94493.66;5071218;28;20309;-44
2023/06/02 03:31:40;;;;;;;7.30;5.40;;;;;;;16.12;97.11;94489.28;5071506;28;20226;-44
2023/06/02 03:34:07;;;;;;;10.23;6.37;;;;;;;16.13;97.25;94490.09;5071663;28;20183;-43
2023/06/02 03:36:36;;;;;;;8.60;6.10;;;;;;;16.20;96.78;94493.56;5071464;28;20213;-45
2023/06/02 03:39:05;;;;;;;7.83;5.80;;;;;;;16.23;96.50;94495.78;5071596;28;20654;-44
2023/06/02 03:41:34;;;;;;;9.13;6.73;;;;;;;16.23;96.46;94491.41;5071849;28;20186;-45
2023/06/02 03:44:01;;;;;;;7.23;6.03;;;;;;;16.27;96.58;94487.50;5071500;28;20191;-46
2023/06/02 03:46:28;;;;;;;6.90;5.70;;;;;;;16.34;96.30;94485.03;5071334;28;20243;-43
2023/06/02 03:48:55;;;;;;;7.17;5.83;;;;;;;16.45;95.68;94479.44;5071446;28;20194;-42
2023/06/02 03:51:22;;;;;;;8.60;6.47;;;;;;;16.61;95.17;94490.53;5071518;28;20214;-46
2023/06/02 03:53:50;;;;;;;15.27;6.47;;;;;;;16.70;94.81;94484.28;5071005;28;20190;-45
2023/06/02 03:56:16;;;;;;;6.53;5.83;;;;;;;16.79;94.36;94478.06;5071359;28;20259;-44
2023/06/02 03:58:45;;;;;;;12.03;5.93;;;;;;;16.85;93.97;94482.53;5071310;28;20194;-46
2023/06/02 04:01:12;;;;;;;9.00;6.13;;;;;;;16.99;93.13;94486.84;5071091;28;20194;-47
2023/06/02 04:03:41;;;;;;;14.30;7.43;;;;;;;17.19;92.50;94474.16;5071630;28;20247;-45
2023/06/02 04:06:09;;;;;;;13.50;6.73;;;;;;;17.34;91.87;94475.88;5071311;28;20197;-43
2023/06/02 04:08:36;;;;;;;10.30;6.97;;;;;;;17.46;91.37;94482.16;5071314;28;20187;-45
2023/06/02 04:11:04;;;;;;;11.17;6.77;;;;;;;17.50;90.51;94470.47;5070790;28;20279;-45
2023/06/02 04:13:31;;;;;;;13.20;6.40;;;;;;;17.60;89.92;94490.81;5070940;28;20739;-45
2023/06/02 04:15:59;;;;;;;9.93;6.33;;;;;;;17.61;89.63;94482.88;5070845;28;20213;-46
2023/06/02 04:18:27;;;;;;;10.60;6.87;;;;;;;17.64;89.41;94484.28;5070962;28;20519;-44
2023/06/02 04:20:54;;;;;;;8.73;5.93;;;;;;;17.70;89.43;94489.53;5070689;28;20186;-44
2023/06/02 04:23:20;;;;;;;9.40;6.70;;;;;;;17.72;89.56;94484.97;5070924;28;20194;-45
2023/06/02 04:25:47;;;;;;;17.87;6.43;;;;;;;17.74;89.46;94480.41;5070763;28;20194;-45
2023/06/02 04:28:15;;;;;;;14.43;6.90;;;;;;;17.77;89.16;94476.69;5070804;28;20702;-45
2023/06/02 04:30:42;;;;;;;10.70;6.93;;;;;;;17.82;88.51;94473.53;5069938;28;20731;-45
2023/06/02 04:33:12;;;;;;;10.30;6.50;;;;;;;17.86;88.29;94472.97;5071111;28;20213;-44
2023/06/02 04:35:39;;;;;;;8.20;6.43;;;;;;;17.89;87.66;94470.00;5071159;28;20209;-45
2023/06/02 04:38:07;;;;;;;12.20;6.83;;;;;;;17.86;87.32;94460.03;5076009;28;20210;-45
2023/06/02 04:40:33;;;;;;;11.50;7.03;;;;;;;17.98;86.75;94483.59;5071212;28;20191;-46
2023/06/02 04:43:00;;;;;;;8.50;6.37;;;;;;;18.03;85.84;94478.66;5072429;28;20205;-46
2023/06/02 04:45:27;;;;;;;8.13;6.90;;;;;;;18.04;85.63;94483.63;5069335;28;20194;-44
2023/06/02 04:47:54;;;;;;;9.63;6.10;;;;;;;18.07;86.05;94487.66;5070061;28;20182;-46
2023/06/02 04:50:22;;;;;;;9.53;5.93;;;;;;;18.07;86.19;94482.47;5070694;28;20182;-46
2023/06/02 04:52:49;;;;;;;11.13;7.00;;;;;;;18.22;85.64;94487.53;5070242;28;20221;-45
2023/06/02 04:55:16;;;;;;;13.73;8.53;;;;;;;18.25;85.41;94489.75;5084344;28;20200;-47
2023/06/02 04:57:42;;;;;;;10.87;6.90;;;;;;;18.29;85.09;94483.22;5091104;28;20190;-44
2023/06/02 05:00:11;;;;;;;10.10;8.03;;;;;;;18.22;84.92;94461.66;5090950;28;20193;-45
2023/06/02 05:02:37;;;;;;;14.23;7.67;;;;;;;18.44;84.53;94494.25;5090372;28;20615;-47
2023/06/02 05:05:05;;;;;;;11.27;7.33;;;;;;;18.59;83.64;94494.13;5090501;28;20609;-47
2023/06/02 05:07:33;;;;;;;20.37;8.30;;;;;;;18.72;82.79;94498.59;5074179;28;20677;-46
2023/06/02 05:10:00;;;;;;;10.97;8.67;;;;;;;18.92;82.73;94493.50;5070177;28;20191;-45
2023/06/02 05:12:27;;;;;;;12.27;8.13;;;;;;;19.23;81.33;94498.19;5069892;28;20329;-45
2023/06/02 05:14:54;;;;;;;13.07;9.17;;;;;;;19.64;80.06;94495.50;5069918;28;20194;-45
2023/06/02 05:17:22;;;;;;;9.83;7.80;;;;;;;19.88;78.43;94475.16;5069942;28;20667;-46
2023/06/02 05:19:49;;;;;;;12.47;8.57;;;;;;;20.43;76.26;94505.06;5069864;28;20218;-47
2023/06/02 05:22:16;;;;;;;16.83;9.32;;;;;;;20.73;74.46;94510.59;5070181;28;20186;-45
2023/06/02 05:24:44;;;;;;;10.75;8.40;;;;;;;20.90;74.71;94500.56;5069696;28;20186;-45
2023/06/02 05:27:11;;;;;;;13.45;8.82;;;;;;;21.41;72.45;94507.53;5069337;28;20776;-46
2023/06/02 05:29:38;;;;;;;12.20;8.48;;;;;;;21.81;71.40;94501.28;5069125;28;20267;-47
2023/06/02 05:32:06;;;;;;;17.52;10.60;;;;;;;21.96;70.28;94505.16;5070200;28;20221;-46
2023/06/02 05:34:33;;;;;;;16.42;9.75;;;;;;;21.91;69.60;94496.41;5072365;28;20194;-45
2023/06/02 05:37:00;;;;;;;14.88;8.43;;;;;;;22.15;69.22;94506.06;5071398;28;20248;-44
2023/06/02 05:39:27;;;;;;;13.75;8.60;;;;;;;22.51;68.33;94501.91;5069614;28;20563;-44
2023/06/02 05:41:55;;;;;;;13.07;8.35;;;;;;;22.92;66.71;94495.25;5069440;28;20197;-46
2023/06/02 05:44:22;;;;;;;11.18;7.55;;;;;;;23.25;65.79;94498.25;5069535;28;20279;-45
2023/06/02 05:46:48;;;;;;;13.90;8.38;;;;;;;23.70;64.00;94497.06;5069512;28;20193;-45
2023/06/02 05:49:15;;;;;;;13.60;7.20;;;;;;;24.15;62.50;94502.59;5068625;28;20186;-45
2023/06/02 05:51:42;;;;;;;10.02;8.48;;;;;;;24.50;61.13;94504.44;5069068;28;20228;-45
2023/06/02 05:54:09;;;;;;;14.82;7.82;;;;;;;24.59;60.45;94505.69;5069480;28;20198;-45
2023/06/02 05:56:36;;;;;;;12.50;7.90;;;;;;;24.09;60.67;94416.47;5069591;28;20251;-45
2023/06/02 05:59:05;;;;;;;15.25;7.38;;;;;;;24.89;59.38;94499.50;5069468;28;20195;-44
2023/06/02 06:01:32;;;;;;;9.20;6.45;;;;;;;25.26;58.28;94503.41;5069015;28;20186;-45
2023/06/02 06:03:59;;;;;;;15.30;6.63;;;;;;;25.62;56.26;94501.41;5069471;28;20194;-45
2023/06/02 06:06:25;;;;;;;12.68;6.60;;;;;;;25.62;55.69;94511.09;5068987;28;20642;-45
2023/06/02 06:08:52;;;;;;;9.52;6.20;;;;;;;25.58;56.16;94512.59;5069410;28;20641;-45
2023/06/02 06:11:19;;;;;;;13.13;6.70;;;;;;;25.52;55.22;94506.47;5069678;28;20244;-46
2023/06/02 06:13:46;;;;;;;12.70;6.55;;;;;;;25.64;55.80;94509.81;5070034;28;20190;-45
2023/06/02 06:16:14;;;;;;;11.07;5.82;;;;;;;25.83;54.59;94509.66;5069108;28;20194;-45
2023/06/02 06:18:41;;;;;;;10.50;6.30;;;;;;;26.06;52.59;94512.13;5069473;28;20256;-45
2023/06/02 06:21:07;;;;;;;9.70;5.97;;;;;;;26.12;53.03;94510.34;5068949;28;20185;-46
2023/06/02 06:23:34;;;;;;;6.38;4.93;;;;;;;26.37;53.96;94520.44;5069058;28;20202;-45
2023/06/02 06:26:01;;;;;;;6.13;5.47;;;;;;;26.66;53.36;94514.06;5069043;28;20191;-44
2023/06/02 06:28:28;;;;;;;8.57;5.38;;;;;;;26.90;52.84;94516.47;5067778;28;20234;-44
2023/06/02 06:30:54;;;;;;;5.40;4.90;;;;;;;27.22;52.03;94520.03;5063844;28;20256;-42
2023/06/02 06:33:23;;;;;;;7.47;4.97;;;;;;;27.51;51.35;94517.22;5064791;28;20211;-43
2023/06/02 06:35:49;;;;;;;7.22;5.80;;;;;;;27.68;48.99;94510.03;5067199;28;20186;-44
2023/06/02 06:38:16;;;;;;;11.15;4.85;;;;;;;27.54;49.81;94515.91;5068066;28;20190;-44
2023/06/02 06:40:44;;;;;;;5.95;4.78;;;;;;;27.52;49.81;94503.81;5068161;28;20217;-44
2023/06/02 06:43:15;;;;;;;7.45;5.90;;;;;;;27.78;48.67;94513.81;5067407;28;20677;-43
2023/06/02 06:45:42;;;;;;;8.27;5.53;;;;;;;27.60;48.29;94505.22;5067675;28;20205;-44
2023/06/02 06:48:08;;;;;;;10.77;4.90;;;;;;;27.49;49.32;94511.38;5067946;28;20194;-46
2023/06/02 06:50:37;;;;;;;6.25;5.13;;;;;;;27.41;49.14;94504.75;5067494;28;20186;-43
2023/06/02 06:53:04;;;;;;;6.45;4.60;;;;;;;27.55;49.28;94505.16;5067787;28;20226;-44
2023/06/02 06:55:30;;;;;;;9.57;5.53;;;;;;;27.55;47.94;94509.59;5067448;28;20752;-44
2023/06/02 06:57:57;;;;;;;9.30;5.57;;;;;;;27.75;48.48;94510.63;5067907;28;20308;-43
2023/06/02 07:00:24;;;;;;;8.02;4.40;;;;;;;27.81;47.62;94508.84;5069687;28;20213;-44
2023/06/02 07:02:51;;;;;;;7.10;4.38;;;;;;;27.70;48.08;94509.75;5069076;28;20595;-44
2023/06/02 07:05:19;;;;;;;5.65;4.78;;;;;;;27.63;48.88;94509.94;5071590;28;20289;-44
2023/06/02 07:07:48;;;;;;;10.75;4.80;;;;;;;27.55;49.55;94509.59;5071578;28;20200;-43
2023/06/02 07:10:15;;;;;;;7.72;4.97;;;;;;;27.33;49.17;94520.97;5071763;28;20198;-44
2023/06/02 07:12:42;;;;;;;8.18;5.03;;;;;;;27.02;49.37;94512.69;5071078;28;20703;-44
2023/06/02 07:15:09;;;;;;;5.97;5.20;;;;;;;26.62;50.27;94523.47;5072098;28;20221;-44
2023/06/02 07:17:36;;;;;;;6.07;4.25;;;;;;;26.51;50.98;94522.53;5070532;28;20202;-44
2023/06/02 07:20:03;;;;;;;7.03;5.25;;;;;;;26.43;50.87;94512.41;5070918;28;20198;-44
2023/06/02 07:22:30;;;;;;;7.40;4.50;;;;;;;26.54;49.74;94513.38;5071187;28;20717;-44
2023/06/02 07:25:00;;;;;;;5.28;4.40;;;;;;;26.71;48.02;94511.50;5071083;28;20205;-44
2023/06/02 07:27:27;;;;;;;6.78;4.90;;;;;;;27.00;48.44;94516.59;5070444;28;20186;-44
2023/06/02 07:29:54;;;;;;;8.15;4.55;;;;;;;27.21;49.78;94504.53;5069741;28;20221;-46
2023/06/02 07:32:20;;;;;;;8.07;4.68;;;;;;;27.43;49.59;94522.91;5070532;28;20217;-44
2023/06/02 07:34:48;;;;;;;12.30;5.75;;;;;;;27.21;49.54;94494.81;5070588;28;20653;-47
2023/06/02 07:37:15;;;;;;;5.22;4.18;;;;;;;27.31;48.89;94523.03;5070857;28;20200;-44
2023/06/02 07:39:42;;;;;;;8.40;4.60;;;;;;;27.19;50.21;94533.66;5070493;28;20676;-44
2023/06/02 07:42:10;;;;;;;6.57;4.97;;;;;;;27.09;50.59;94540.59;5070855;28;20198;-46
2023/06/02 07:44:37;;;;;;;5.90;4.97;;;;;;;27.03;50.83;94531.88;5070030;28;20661;-43
2023/06/02 07:47:07;;;;;;;6.78;5.88;;;;;;;26.80;50.10;94500.59;5070439;28;20182;-44
2023/06/02 07:49:33;;;;;;;7.80;5.15;;;;;;;26.94;50.69;94535.94;5070499;28;20787;-44
2023/06/02 07:52:00;;;;;;;10.07;5.72;;;;;;;26.90;50.44;94538.28;5070691;28;20190;-44
2023/06/02 07:54:27;;;;;;;6.80;5.03;;;;;;;26.65;51.26;94537.94;5070681;28;20685;-44
2023/06/02 07:56:54;;;;;;;8.70;5.45;;;;;;;26.52;50.89;94539.84;5070468;28;20206;-44
2023/06/02 07:59:23;;;;;;;6.07;5.10;;;;;;;26.43;51.25;94535.22;5070781;28;20248;-44
2023/06/02 08:01:50;;;;;;;10.63;5.35;;;;;;;26.36;52.12;94530.13;5069657;28;20601;-45
2023/06/02 08:04:17;;;;;;;8.98;4.90;;;;;;;26.32;52.23;94531.66;5070909;28;20202;-44
2023/06/02 08:06:44;;;;;;;7.90;5.07;;;;;;;26.29;52.38;94524.25;5070105;28;20182;-44
2023/06/02 08:09:12;;;;;;;8.30;4.72;;;;;;;26.26;51.66;94522.91;5069861;28;20583;-45
2023/06/02 08:11:38;;;;;;;7.95;5.10;;;;;;;26.28;51.62;94522.66;5069077;28;20205;-43
2023/06/02 08:14:05;;;;;;;6.20;5.25;;;;;;;26.29;51.14;94519.00;5069620;28;20218;-44
2023/06/02 08:16:33;;;;;;;7.82;5.43;;;;;;;26.28;51.08;94510.34;5069850;28;20660;-44
2023/06/02 08:19:00;;;;;;;8.82;5.20;;;;;;;26.46;51.09;94517.19;5069930;28;20642;-44
2023/06/02 08:21:27;;;;;;;6.28;5.38;;;;;;;26.58;50.49;94506.63;5069921;28;20202;-44
2023/06/02 08:23:53;;;;;;;6.97;5.07;;;;;;;26.60;50.44;94514.22;5070155;28;20193;-44
2023/06/02 08:26:22;;;;;;;7.65;4.78;;;;;;;26.64;50.14;94515.34;5069652;28;20198;-44
2023/06/02 08:28:49;;;;;;;11.32;4.85;;;;;;;26.24;49.06;94441.06;5068986;28;20620;-44
2023/06/02 08:31:18;;;;;;;8.25;5.40;;;;;;;26.69;49.31;94503.09;5069658;28;20202;-44
2023/06/02 08:33:47;;;;;;;6.93;4.90;;;;;;;26.55;49.51;94490.56;5069562;28;20332;-44
2023/06/02 08:36:17;;;;;;;6.35;4.68;;;;;;;26.67;48.40;94484.16;5070062;28;20194;-45
2023/06/02 08:38:44;;;;;;;7.78;4.95;;;;;;;26.67;47.36;94491.25;5069679;28;20249;-44
2023/06/02 08:41:12;;;;;;;6.60;5.25;;;;;;;26.59;47.96;94483.78;5070065;28;20186;-44
2023/06/02 08:43:39;;;;;;;10.82;5.10;;;;;;;26.73;48.58;94485.03;5069210;28;20279;-45
2023/06/02 08:46:08;;;;;;;6.30;4.65;;;;;;;27.03;47.59;94484.63;5069960;28;20192;-44
2023/06/02 08:48:36;;;;;;;6.63;4.13;;;;;;;27.27;47.58;94477.28;5069527;28;20669;-45
2023/06/02 08:51:09;;;;;;;12.40;5.57;;;;;;;27.44;47.93;94464.84;5069962;28;20229;-44
2023/06/02 08:53:37;;;;;;;7.93;4.35;;;;;;;27.67;45.60;94470.84;5068039;28;20245;-43
2023/06/02 08:56:05;;;;;;;8.77;5.10;;;;;;;27.69;46.71;94456.41;5069850;28;20194;-43
2023/06/02 08:58:32;;;;;;;7.70;4.72;;;;;;;27.80;45.69;94462.56;5068776;28;20285;-46
2023/06/02 09:00:59;;;;;;;7.80;4.32;;;;;;;27.66;44.71;94453.50;5068886;28;20193;-45
2023/06/02 09:03:27;;;;;;;4.90;4.47;;;;;;;27.58;44.98;94446.06;5069265;28;20258;-44
2023/06/02 09:05:54;;;;;;;5.80;4.65;;;;;;;27.66;45.16;94453.50;5069207;28;20186;-45
2023/06/02 09:08:23;;;;;;;6.88;4.43;;;;;;;27.71;45.55;94446.44;5069392;28;20212;-45
2023/06/02 09:10:50;;;;;;;10.65;4.78;;;;;;;27.71;45.71;94438.53;5068745;28;20229;-44
2023/06/02 09:13:30;;;;;;;6.70;4.80;;;;;;;27.86;46.51;94442.38;5068924;28;20614;-44
2023/06/02 09:15:58;;;;;;;9.23;5.25;;;;;;;28.05;45.18;94440.16;5068429;28;20227;-44
2023/06/02 09:18:25;;;;;;;9.20;4.53;;;;;;;27.78;45.71;94411.31;5069025;28;20225;-45
2023/06/02 09:20:52;;;;;;;6.93;5.30;;;;;;;27.94;45.56;94441.94;5069083;28;20190;-44
2023/06/02 09:23:19;;;;;;;6.25;5.18;;;;;;;27.91;45.93;94408.25;5067413;28;20260;-43
2023/06/02 09:25:48;;;;;;;6.40;5.22;;;;;;;28.16;45.00;94434.72;5069022;28;20194;-44
2023/06/02 09:28:14;;;;;;;10.20;5.47;;;;;;;27.93;45.08;94419.28;5068989;28;20226;-44
2023/06/02 09:30:45;;;;;;;7.57;4.80;;;;;;;27.90;44.46;94428.50;5068574;28;20206;-46
2023/06/02 09:33:12;;;;;;;5.75;4.70;;;;;;;27.82;43.07;94421.06;5068719;28;20236;-44
2023/06/02 09:35:41;;;;;;;10.55;4.60;;;;;;;27.81;44.12;94427.38;5068706;28;20225;-44
2023/06/02 09:38:10;;;;;;;7.82;4.95;;;;;;;27.86;43.88;94426.63;5068711;28;20252;-42
2023/06/02 09:40:37;;;;;;;5.95;4.95;;;;;;;27.77;43.76;94418.41;5068686;28;20194;-42
2023/06/02 09:43:07;;;;;;;5.13;4.63;;;;;;;27.66;44.71;94412.25;5072643;28;20233;-43
2023/06/02 09:45:34;;;;;;;5.63;4.90;;;;;;;27.74;45.10;94414.44;5067771;28;20203;-44
2023/06/02 09:48:01;;;;;;;6.68;5.13;;;;;;;27.77;44.82;94417.63;5068496;28;20551;-44
2023/06/02 09:50:33;;;;;;;6.35;4.35;;;;;;;27.66;43.99;94416.69;5068525;28;20217;-45
2023/06/02 09:53:02;;;;;;;5.20;4.70;;;;;;;27.38;44.53;94409.91;5068380;28;20226;-45
2023/06/02 09:55:30;;;;;;;6.22;5.25;;;;;;;27.29;45.43;94414.00;5067367;28;20735;-45
2023/06/02 09:57:58;;;;;;;8.25;5.22;;;;;;;27.17;44.89;94407.09;5068178;28;20190;-44
2023/06/02 10:00:26;;;;;;;4.85;4.00;;;;;;;27.13;45.63;94413.09;5066762;28;20673;-44
2023/06/02 10:02:53;;;;;;;4.75;4.30;;;;;;;27.15;46.47;94413.63;5068020;28;20365;-44
2023/06/02 10:05:22;;;;;;;9.65;4.93;;;;;;;26.96;45.47;94411.31;5068466;28;20186;-44
2023/06/02 10:07:57;;;;;;;5.85;4.72;;;;;;;27.01;44.96;94405.31;5068132;28;20264;-45
2023/06/02 10:10:36;;;;;;;8.27;5.97;;;;;;;26.94;45.17;94407.31;5067821;28;20267;-44
2023/06/02 10:13:33;;;;;;;9.55;5.65;;;;;;;26.91;45.62;94397.34;5066424;28;20903;-45
2023/06/02 10:16:13;;;;;;;6.32;4.57;;;;;;;26.94;46.56;94400.28;5003436;28;20199;-43
2023/06/02 10:19:20;;;;;;;7.80;4.78;;;;;;;26.84;45.74;94389.66;5003671;28;20191;-44
2023/06/02 10:22:03;;;;;;;6.82;4.70;;;;;;;26.93;45.54;94395.25;5006458;28;20199;-45
2023/06/02 10:24:42;;;;;;;6.53;4.72;;;;;;;26.98;45.83;94396.09;5006444;28;20231;-43
2023/06/02 10:27:27;;;;;;;6.28;4.70;;;;;;;27.01;45.30;94392.19;5006513;28;20206;-43
2023/06/02 10:29:55;;;;;;;5.10;4.60;;;;;;;27.04;45.56;94391.69;5005781;28;20278;-44
2023/06/02 10:32:26;;;;;;;8.85;4.40;;;;;;;27.05;46.14;94398.53;5008738;28;20193;-43
2023/06/02 10:34:54;;;;;;;10.32;5.25;;;;;;;27.06;45.28;94392.22;5010565;28;21135;-43
2023/06/02 10:37:22;;;;;;;5.22;4.72;;;;;;;27.00;45.76;94387.97;5009250;28;20668;-47
2023/06/02 10:39:52;;;;;;;6.78;4.93;;;;;;;26.92;45.28;94388.44;5009799;28;20200;-44
2023/06/02 10:42:20;;;;;;;7.15;5.15;;;;;;;27.02;44.96;94388.53;5009722;28;20204;-43
2023/06/02 10:44:48;;;;;;;7.95;4.72;;;;;;;26.83;45.04;94340.84;5009736;28;20284;-43
2023/06/02 10:47:43;;;;;;;6.10;4.80;;;;;;;27.01;44.55;94358.84;5009161;28;20201;-43
2023/06/02 10:50:11;;;;;;;8.98;4.25;;;;;;;26.84;45.24;94329.28;4968950;28;20201;-44
2023/06/02 10:53:10;;;;;;;5.45;4.43;;;;;;;26.91;43.83;94365.84;4994144;28;20613;-45
2023/06/02 10:55:38;;;;;;;5.70;4.30;;;;;;;26.83;44.25;94368.91;5048542;28;20287;-44
2023/06/02 10:58:07;;;;;;;6.50;4.60;;;;;;;26.71;44.67;94359.34;5049429;28;20191;-45
2023/06/02 11:00:49;;;;;;;6.40;4.85;;;;;;;26.81;45.80;94363.09;5044875;28;20203;-45
2023/06/02 11:03:36;;;;;;;6.82;4.43;;;;;;;26.93;45.99;94367.16;5049199;28;20190;-43
2023/06/02 11:06:20;;;;;;;6.25;4.40;;;;;;;27.02;44.40;94357.81;5048831;28;20199;-44
2023/06/02 11:08:48;;;;;;;7.47;4.47;;;;;;;26.94;43.65;94360.09;5048811;28;20198;-43
2023/06/02 11:11:48;;;;;;;5.20;4.45;;;;;;;26.95;44.24;94349.34;5045124;28;20192;-44
2023/06/02 11:14:15;;;;;;;9.05;4.18;;;;;;;27.06;43.87;94352.84;5046301;28;20230;-43
2023/06/02 11:16:42;;;;;;;9.10;4.60;;;;;;;27.07;44.08;94351.81;5049341;28;20298;-44
2023/06/02 11:19:10;;;;;;;5.20;4.72;;;;;;;27.06;44.56;94344.97;5048919;28;20288;-44
2023/06/02 11:21:37;;;;;;;5.22;4.22;;;;;;;27.10;44.71;94346.09;5047577;28;20301;-43
2023/06/02 11:24:05;;;;;;;7.43;5.05;;;;;;;27.23;44.67;94350.94;5049747;28;20214;-43
2023/06/02 11:26:32;;;;;;;5.53;3.92;;;;;;;27.16;43.53;94320.69;5061741;28;20213;-44
2023/06/02 11:29:15;;;;;;;4.78;4.28;;;;;;;27.37;43.62;94338.19;5071193;28;20223;-43
2023/06/02 11:31:48;;;;;;;7.03;4.20;;;;;;;27.37;43.19;94332.16;5070702;28;20194;-46
2023/06/02 11:34:17;;;;;;;4.93;4.38;;;;;;;27.48;42.99;94333.81;5071379;28;20218;-44
2023/06/02 11:36:48;;;;;;;5.15;4.65;;;;;;;27.56;43.60;94333.34;5070461;28;20285;-43
2023/06/02 11:39:15;;;;;;;5.60;4.18;;;;;;;27.21;42.54;94273.47;5070659;28;20193;-45